sensor_id;sensor_type;location;lat;lon;timestamp;temperature;humidity
1337;DHT22;662;48.814;9.318;2023-03-02T00:01:06;5.40;52.50
1337;DHT22;662;48.814;9.318;2023-03-02T00:03:35;5.40;52.50
1337;DHT22;662;48.814;9.318;2023-03-02T00:06:02;5.40;52.50
1337;DHT22;662;48.814;9.318;2023-03-02T00:08:28;5.40;52.70
1337;DHT22;662;48.814;9.318;2023-03-02T00:10:55;5.40;52.70
1337;DHT22;662;48.814;9.318;2023-03-02T00:13:22;5.40;52.70
1337;DHT22;662;48.814;9.318;2023-03-02T00:15:48;5.30;52.70
1337;DHT22;662;48.814;9.318;2023-03-02T00:18:14;5.30;52.60
1337;DHT22;662;48.814;9.318;2023-03-02T00:20:39;5.30;52.70
1337;DHT22;662;48.814;9.318;2023-03-02T00:23:06;5.30;52.80
1337;DHT22;662;48.814;9.318;2023-03-02T00:25:32;5.20;52.80
1337;DHT22;662;48.814;9.318;2023-03-02T00:27:57;5.20;52.90
1337;DHT22;662;48.814;9.318;2023-03-02T00:30:23;5.20;53.10
1337;DHT22;662;48.814;9.318;2023-03-02T00:32:49;5.20;53.20
1337;DHT22;662;48.814;9.318;2023-03-02T00:35:14;5.20;53.30
1337;DHT22;662;48.814;9.318;2023-03-02T00:37:40;5.20;53.30
1337;DHT22;662;48.814;9.318;2023-03-02T00:40:07;5.20;53.30
1337;DHT22;662;48.814;9.318;2023-03-02T00:42:35;5.20;53.30
1337;DHT22;662;48.814;9.318;2023-03-02T00:45:01;5.20;53.30
1337;DHT22;662;48.814;9.318;2023-03-02T00:47:28;5.20;53.30
1337;DHT22;662;48.814;9.318;2023-03-02T00:49:54;5.20;53.80
1337;DHT22;662;48.814;9.318;2023-03-02T00:52:20;5.20;53.20
1337;DHT22;662;48.814;9.318;2023-03-02T00:54:46;5.10;53.20
1337;DHT22;662;48.814;9.318;2023-03-02T00:57:11;5.10;53.20
1337;DHT22;662;48.814;9.318;2023-03-02T00:59:38;5.10;53.30
1337;DHT22;662;48.814;9.318;2023-03-02T01:02:05;5.10;53.40
1337;DHT22;662;48.814;9.318;2023-03-02T01:04:34;5.10;53.50
1337;DHT22;662;48.814;9.318;2023-03-02T01:07:05;5.10;53.50
1337;DHT22;662;48.814;9.318;2023-03-02T01:09:32;5.10;53.50
1337;DHT22;662;48.814;9.318;2023-03-02T01:11:58;5.10;53.50
1337;DHT22;662;48.814;9.318;2023-03-02T01:14:24;5.00;53.50
1337;DHT22;662;48.814;9.318;2023-03-02T01:16:50;5.10;53.50
1337;DHT22;662;48.814;9.318;2023-03-02T01:19:16;5.10;53.60
1337;DHT22;662;48.814;9.318;2023-03-02T01:21:41;5.00;53.50
1337;DHT22;662;48.814;9.318;2023-03-02T01:24:09;5.00;53.50
1337;DHT22;662;48.814;9.318;2023-03-02T01:26:35;5.00;53.60
1337;DHT22;662;48.814;9.318;2023-03-02T01:29:01;5.00;53.60
1337;DHT22;662;48.814;9.318;2023-03-02T01:31:27;5.00;53.60
1337;DHT22;662;48.814;9.318;2023-03-02T01:33:54;5.00;53.60
1337;DHT22;662;48.814;9.318;2023-03-02T01:36:21;5.00;53.70
1337;DHT22;662;48.814;9.318;2023-03-02T01:38:46;5.00;53.70
1337;DHT22;662;48.814;9.318;2023-03-02T01:41:12;5.00;53.70
1337;DHT22;662;48.814;9.318;2023-03-02T01:43:38;5.00;53.70
1337;DHT22;662;48.814;9.318;2023-03-02T01:49:03;5.00;53.80
1337;DHT22;662;48.814;9.318;2023-03-02T01:51:33;5.00;53.80
1337;DHT22;662;48.814;9.318;2023-03-02T01:54:05;4.90;53.70
1337;DHT22;662;48.814;9.318;2023-03-02T01:56:35;4.90;53.80
1337;DHT22;662;48.814;9.318;2023-03-02T01:59:05;4.90;53.90
1337;DHT22;662;48.814;9.318;2023-03-02T02:01:34;4.90;53.80
1337;DHT22;662;48.814;9.318;2023-03-02T02:04:00;4.90;53.90
1337;DHT22;662;48.814;9.318;2023-03-02T02:06:31;4.80;53.80
1337;DHT22;662;48.814;9.318;2023-03-02T02:09:00;4.80;53.80
1337;DHT22;662;48.814;9.318;2023-03-02T02:11:27;4.80;54.00
1337;DHT22;662;48.814;9.318;2023-03-02T02:13:58;4.80;54.00
1337;DHT22;662;48.814;9.318;2023-03-02T02:16:25;4.80;54.10
1337;DHT22;662;48.814;9.318;2023-03-02T02:18:51;4.80;54.20
1337;DHT22;662;48.814;9.318;2023-03-02T02:21:18;4.80;54.20
1337;DHT22;662;48.814;9.318;2023-03-02T02:29:30;4.80;54.40
1337;DHT22;662;48.814;9.318;2023-03-02T02:37:16;4.70;54.40
1337;DHT22;662;48.814;9.318;2023-03-02T02:39:46;4.70;54.40
1337;DHT22;662;48.814;9.318;2023-03-02T02:42:20;4.70;54.40
1337;DHT22;662;48.814;9.318;2023-03-02T02:44:55;4.70;54.50
1337;DHT22;662;48.814;9.318;2023-03-02T02:47:21;4.70;54.40
1337;DHT22;662;48.814;9.318;2023-03-02T02:49:50;4.70;54.30
1337;DHT22;662;48.814;9.318;2023-03-02T02:52:19;4.70;54.30
1337;DHT22;662;48.814;9.318;2023-03-02T02:54:48;4.60;54.30
1337;DHT22;662;48.814;9.318;2023-03-02T02:57:15;4.60;54.40
1337;DHT22;662;48.814;9.318;2023-03-02T02:59:51;4.60;54.50
1337;DHT22;662;48.814;9.318;2023-03-02T03:02:21;4.60;54.60
1337;DHT22;662;48.814;9.318;2023-03-02T03:04:47;4.60;54.70
1337;DHT22;662;48.814;9.318;2023-03-02T03:07:19;4.60;54.60
1337;DHT22;662;48.814;9.318;2023-03-02T03:12:37;4.50;54.40
1337;DHT22;662;48.814;9.318;2023-03-02T03:15:05;4.50;54.40
1337;DHT22;662;48.814;9.318;2023-03-02T03:17:31;4.40;54.30
1337;DHT22;662;48.814;9.318;2023-03-02T03:19:56;4.40;54.30
1337;DHT22;662;48.814;9.318;2023-03-02T03:22:35;4.40;54.50
1337;DHT22;662;48.814;9.318;2023-03-02T03:25:01;4.40;54.60
1337;DHT22;662;48.814;9.318;2023-03-02T03:27:27;4.30;54.70
1337;DHT22;662;48.814;9.318;2023-03-02T03:29:53;4.30;54.80
1337;DHT22;662;48.814;9.318;2023-03-02T03:32:19;4.20;54.90
1337;DHT22;662;48.814;9.318;2023-03-02T03:34:45;4.30;55.10
1337;DHT22;662;48.814;9.318;2023-03-02T03:37:14;4.20;55.10
1337;DHT22;662;48.814;9.318;2023-03-02T03:39:41;4.20;55.30
1337;DHT22;662;48.814;9.318;2023-03-02T03:42:07;4.10;55.20
1337;DHT22;662;48.814;9.318;2023-03-02T03:44:33;4.10;55.30
1337;DHT22;662;48.814;9.318;2023-03-02T03:46:58;4.10;55.40
1337;DHT22;662;48.814;9.318;2023-03-02T03:49:24;4.20;55.60
1337;DHT22;662;48.814;9.318;2023-03-02T03:51:50;4.10;55.50
1337;DHT22;662;48.814;9.318;2023-03-02T03:54:16;4.10;55.60
1337;DHT22;662;48.814;9.318;2023-03-02T03:56:45;4.00;55.60
1337;DHT22;662;48.814;9.318;2023-03-02T03:59:15;4.00;55.60
1337;DHT22;662;48.814;9.318;2023-03-02T04:01:45;4.00;55.80
1337;DHT22;662;48.814;9.318;2023-03-02T04:04:14;4.00;55.90
1337;DHT22;662;48.814;9.318;2023-03-02T04:06:40;4.00;56.00
1337;DHT22;662;48.814;9.318;2023-03-02T04:09:06;4.00;56.00
1337;DHT22;662;48.814;9.318;2023-03-02T04:11:34;3.90;56.10
1337;DHT22;662;48.814;9.318;2023-03-02T04:14:00;3.90;56.10
1337;DHT22;662;48.814;9.318;2023-03-02T04:16:26;4.00;56.20
1337;DHT22;662;48.814;9.318;2023-03-02T04:18:52;3.90;56.10
1337;DHT22;662;48.814;9.318;2023-03-02T04:21:18;4.00;56.20
1337;DHT22;662;48.814;9.318;2023-03-02T04:23:44;4.00;56.20
1337;DHT22;662;48.814;9.318;2023-03-02T04:26:09;4.00;56.20
1337;DHT22;662;48.814;9.318;2023-03-02T04:28:35;4.00;56.20
1337;DHT22;662;48.814;9.318;2023-03-02T04:31:00;4.00;56.10
1337;DHT22;662;48.814;9.318;2023-03-02T04:33:26;3.90;56.00
1337;DHT22;662;48.814;9.318;2023-03-02T04:35:52;4.00;56.20
1337;DHT22;662;48.814;9.318;2023-03-02T04:38:19;3.90;56.20
1337;DHT22;662;48.814;9.318;2023-03-02T04:40:45;3.80;56.20
1337;DHT22;662;48.814;9.318;2023-03-02T04:43:11;3.90;56.30
1337;DHT22;662;48.814;9.318;2023-03-02T04:45:37;3.90;56.30
1337;DHT22;662;48.814;9.318;2023-03-02T04:48:03;3.90;56.30
1337;DHT22;662;48.814;9.318;2023-03-02T04:50:29;3.90;56.30
1337;DHT22;662;48.814;9.318;2023-03-02T04:52:55;3.90;56.40
1337;DHT22;662;48.814;9.318;2023-03-02T04:55:25;3.90;56.30
1337;DHT22;662;48.814;9.318;2023-03-02T04:57:51;3.90;56.20
1337;DHT22;662;48.814;9.318;2023-03-02T05:00:18;3.80;56.20
1337;DHT22;662;48.814;9.318;2023-03-02T05:02:45;3.80;56.20
1337;DHT22;662;48.814;9.318;2023-03-02T05:05:17;3.80;56.20
1337;DHT22;662;48.814;9.318;2023-03-02T05:07:43;3.80;56.20
1337;DHT22;662;48.814;9.318;2023-03-02T05:10:13;3.80;56.30
1337;DHT22;662;48.814;9.318;2023-03-02T05:12:39;3.70;56.30
1337;DHT22;662;48.814;9.318;2023-03-02T05:15:40;3.70;56.40
1337;DHT22;662;48.814;9.318;2023-03-02T05:18:07;3.70;56.40
1337;DHT22;662;48.814;9.318;2023-03-02T05:20:34;3.60;56.30
1337;DHT22;662;48.814;9.318;2023-03-02T05:23:03;3.60;56.40
1337;DHT22;662;48.814;9.318;2023-03-02T05:25:31;3.60;56.50
1337;DHT22;662;48.814;9.318;2023-03-02T05:27:57;3.50;56.60
1337;DHT22;662;48.814;9.318;2023-03-02T05:30:23;3.40;56.70
1337;DHT22;662;48.814;9.318;2023-03-02T05:32:50;3.40;56.80
1337;DHT22;662;48.814;9.318;2023-03-02T05:35:17;3.40;57.00
1337;DHT22;662;48.814;9.318;2023-03-02T05:37:43;3.40;57.00
1337;DHT22;662;48.814;9.318;2023-03-02T05:40:12;3.30;57.10
1337;DHT22;662;48.814;9.318;2023-03-02T05:42:38;3.30;57.30
1337;DHT22;662;48.814;9.318;2023-03-02T05:45:06;3.30;57.40
1337;DHT22;662;48.814;9.318;2023-03-02T05:47:32;3.20;57.40
1337;DHT22;662;48.814;9.318;2023-03-02T05:49:57;3.20;57.50
1337;DHT22;662;48.814;9.318;2023-03-02T05:52:24;3.20;57.70
1337;DHT22;662;48.814;9.318;2023-03-02T05:54:50;3.20;57.70
1337;DHT22;662;48.814;9.318;2023-03-02T05:57:16;3.30;57.70
1337;DHT22;662;48.814;9.318;2023-03-02T05:59:41;3.30;57.70
1337;DHT22;662;48.814;9.318;2023-03-02T06:02:07;3.30;57.60
1337;DHT22;662;48.814;9.318;2023-03-02T06:04:33;3.30;57.60
1337;DHT22;662;48.814;9.318;2023-03-02T06:06:58;3.40;57.70
1337;DHT22;662;48.814;9.318;2023-03-02T06:09:24;3.40;57.70
1337;DHT22;662;48.814;9.318;2023-03-02T06:11:49;3.50;57.80
1337;DHT22;662;48.814;9.318;2023-03-02T06:14:15;3.50;57.70
1337;DHT22;662;48.814;9.318;2023-03-02T06:16:40;3.50;57.60
1337;DHT22;662;48.814;9.318;2023-03-02T06:19:06;3.60;57.60
1337;DHT22;662;48.814;9.318;2023-03-02T06:21:32;3.60;57.40
1337;DHT22;662;48.814;9.318;2023-03-02T06:23:57;3.70;57.40
1337;DHT22;662;48.814;9.318;2023-03-02T06:26:23;3.70;57.30
1337;DHT22;662;48.814;9.318;2023-03-02T06:28:49;3.70;57.20
1337;DHT22;662;48.814;9.318;2023-03-02T06:31:14;3.80;57.30
1337;DHT22;662;48.814;9.318;2023-03-02T06:33:40;3.80;57.10
1337;DHT22;662;48.814;9.318;2023-03-02T06:36:06;3.80;57.10
1337;DHT22;662;48.814;9.318;2023-03-02T06:38:32;3.90;57.20
1337;DHT22;662;48.814;9.318;2023-03-02T06:40:58;3.90;57.20
1337;DHT22;662;48.814;9.318;2023-03-02T06:43:24;3.90;57.20
1337;DHT22;662;48.814;9.318;2023-03-02T06:45:50;3.90;57.20
1337;DHT22;662;48.814;9.318;2023-03-02T06:48:16;3.90;57.20
1337;DHT22;662;48.814;9.318;2023-03-02T06:50:41;3.90;57.20
1337;DHT22;662;48.814;9.318;2023-03-02T06:53:07;3.90;57.20
1337;DHT22;662;48.814;9.318;2023-03-02T06:55:33;3.90;57.40
1337;DHT22;662;48.814;9.318;2023-03-02T06:57:59;4.00;57.50
1337;DHT22;662;48.814;9.318;2023-03-02T07:00:24;4.00;57.50
1337;DHT22;662;48.814;9.318;2023-03-02T07:02:54;4.00;57.40
1337;DHT22;662;48.814;9.318;2023-03-02T07:05:21;4.10;57.50
1337;DHT22;662;48.814;9.318;2023-03-02T07:07:48;4.10;57.50
1337;DHT22;662;48.814;9.318;2023-03-02T07:10:14;4.10;57.50
1337;DHT22;662;48.814;9.318;2023-03-02T07:12:41;4.10;57.50
1337;DHT22;662;48.814;9.318;2023-03-02T07:15:07;4.20;57.50
1337;DHT22;662;48.814;9.318;2023-03-02T07:17:36;4.20;57.40
1337;DHT22;662;48.814;9.318;2023-03-02T07:20:04;4.30;57.40
1337;DHT22;662;48.814;9.318;2023-03-02T07:22:30;4.30;57.30
1337;DHT22;662;48.814;9.318;2023-03-02T07:24:56;4.40;57.30
1337;DHT22;662;48.814;9.318;2023-03-02T07:27:22;4.40;57.30
1337;DHT22;662;48.814;9.318;2023-03-02T07:29:47;4.40;57.20
1337;DHT22;662;48.814;9.318;2023-03-02T07:32:13;4.50;57.20
1337;DHT22;662;48.814;9.318;2023-03-02T07:34:39;4.60;57.10
1337;DHT22;662;48.814;9.318;2023-03-02T07:37:05;4.70;57.10
1337;DHT22;662;48.814;9.318;2023-03-02T07:39:30;4.70;56.90
1337;DHT22;662;48.814;9.318;2023-03-02T07:42:00;4.80;56.90
1337;DHT22;662;48.814;9.318;2023-03-02T07:44:29;4.80;56.90
1337;DHT22;662;48.814;9.318;2023-03-02T07:46:55;4.90;56.80
1337;DHT22;662;48.814;9.318;2023-03-02T07:49:20;4.90;56.80
1337;DHT22;662;48.814;9.318;2023-03-02T07:51:46;5.00;56.80
1337;DHT22;662;48.814;9.318;2023-03-02T07:54:12;5.10;56.80
1337;DHT22;662;48.814;9.318;2023-03-02T07:56:37;5.10;56.60
1337;DHT22;662;48.814;9.318;2023-03-02T07:59:03;5.20;56.60
1337;DHT22;662;48.814;9.318;2023-03-02T08:01:29;5.30;56.50
1337;DHT22;662;48.814;9.318;2023-03-02T08:03:55;5.40;56.40
1337;DHT22;662;48.814;9.318;2023-03-02T08:06:20;5.40;56.30
1337;DHT22;662;48.814;9.318;2023-03-02T08:08:46;5.50;56.20
1337;DHT22;662;48.814;9.318;2023-03-02T08:11:15;5.60;56.10
1337;DHT22;662;48.814;9.318;2023-03-02T08:13:42;5.70;56.00
1337;DHT22;662;48.814;9.318;2023-03-02T08:16:09;5.70;55.90
1337;DHT22;662;48.814;9.318;2023-03-02T08:18:36;5.80;55.90
1337;DHT22;662;48.814;9.318;2023-03-02T08:21:02;5.80;55.70
1337;DHT22;662;48.814;9.318;2023-03-02T08:23:28;5.90;55.60
1337;DHT22;662;48.814;9.318;2023-03-02T08:25:54;6.00;55.60
1337;DHT22;662;48.814;9.318;2023-03-02T08:28:21;6.10;55.60
1337;DHT22;662;48.814;9.318;2023-03-02T08:30:58;6.10;55.50
1337;DHT22;662;48.814;9.318;2023-03-02T08:33:25;6.20;55.50
1337;DHT22;662;48.814;9.318;2023-03-02T08:35:59;6.40;55.60
1337;DHT22;662;48.814;9.318;2023-03-02T08:38:25;6.70;55.60
1337;DHT22;662;48.814;9.318;2023-03-02T08:40:52;7.10;55.50
1337;DHT22;662;48.814;9.318;2023-03-02T08:43:22;8.20;54.90
1337;DHT22;662;48.814;9.318;2023-03-02T08:45:52;9.70;53.10
1337;DHT22;662;48.814;9.318;2023-03-02T08:48:19;11.10;49.80
1337;DHT22;662;48.814;9.318;2023-03-02T08:50:57;12.50;47.60
1337;DHT22;662;48.814;9.318;2023-03-02T08:53:23;13.50;45.10
1337;DHT22;662;48.814;9.318;2023-03-02T08:55:49;14.20;43.30
1337;DHT22;662;48.814;9.318;2023-03-02T08:58:15;14.80;43.00
1337;DHT22;662;48.814;9.318;2023-03-02T09:00:41;15.50;41.40
1337;DHT22;662;48.814;9.318;2023-03-02T09:03:06;16.30;40.50
1337;DHT22;662;48.814;9.318;2023-03-02T09:05:32;16.90;38.70
1337;DHT22;662;48.814;9.318;2023-03-02T09:07:58;17.30;36.40
1337;DHT22;662;48.814;9.318;2023-03-02T09:10:23;17.70;35.90
1337;DHT22;662;48.814;9.318;2023-03-02T09:12:49;17.90;35.10
1337;DHT22;662;48.814;9.318;2023-03-02T09:15:14;18.30;34.90
1337;DHT22;662;48.814;9.318;2023-03-02T09:17:40;18.60;34.20
1337;DHT22;662;48.814;9.318;2023-03-02T09:20:07;19.20;34.00
1337;DHT22;662;48.814;9.318;2023-03-02T09:22:36;19.80;33.40
1337;DHT22;662;48.814;9.318;2023-03-02T09:25:05;20.10;32.50
1337;DHT22;662;48.814;9.318;2023-03-02T09:27:32;20.30;31.80
1337;DHT22;662;48.814;9.318;2023-03-02T09:29:57;20.60;31.50
1337;DHT22;662;48.814;9.318;2023-03-02T09:32:23;20.90;31.00
1337;DHT22;662;48.814;9.318;2023-03-02T09:34:49;21.30;30.30
1337;DHT22;662;48.814;9.318;2023-03-02T09:37:15;21.60;29.80
1337;DHT22;662;48.814;9.318;2023-03-02T09:39:41;21.80;29.50
1337;DHT22;662;48.814;9.318;2023-03-02T09:50:32;22.80;27.80
1337;DHT22;662;48.814;9.318;2023-03-02T09:55:58;23.20;27.50
1337;DHT22;662;48.814;9.318;2023-03-02T09:58:37;23.30;27.60
1337;DHT22;662;48.814;9.318;2023-03-02T10:01:12;23.50;27.40
1337;DHT22;662;48.814;9.318;2023-03-02T10:03:59;23.60;27.30
1337;DHT22;662;48.814;9.318;2023-03-02T10:06:27;23.70;27.10
1337;DHT22;662;48.814;9.318;2023-03-02T10:08:54;23.60;26.80
1337;DHT22;662;48.814;9.318;2023-03-02T10:11:21;23.00;26.80
1337;DHT22;662;48.814;9.318;2023-03-02T10:14:16;22.00;27.30
1337;DHT22;662;48.814;9.318;2023-03-02T10:20:13;19.80;28.60
1337;DHT22;662;48.814;9.318;2023-03-02T10:22:47;18.80;29.40
1337;DHT22;662;48.814;9.318;2023-03-02T10:26:02;18.00;30.40
1337;DHT22;662;48.814;9.318;2023-03-02T10:28:21;17.20;31.20
1337;DHT22;662;48.814;9.318;2023-03-02T10:31:22;16.40;32.10
1337;DHT22;662;48.814;9.318;2023-03-02T10:33:48;15.70;33.30
1337;DHT22;662;48.814;9.318;2023-03-02T10:36:27;15.10;34.20
1337;DHT22;662;48.814;9.318;2023-03-02T10:38:54;14.70;35.10
1337;DHT22;662;48.814;9.318;2023-03-02T10:41:31;14.20;35.80
1337;DHT22;662;48.814;9.318;2023-03-02T10:44:02;13.80;36.50
1337;DHT22;662;48.814;9.318;2023-03-02T10:46:43;13.50;37.30
1337;DHT22;662;48.814;9.318;2023-03-02T10:49:48;13.10;38.30
1337;DHT22;662;48.814;9.318;2023-03-02T10:52:25;12.70;39.30
1337;DHT22;662;48.814;9.318;2023-03-02T10:55:05;12.40;39.70
1337;DHT22;662;48.814;9.318;2023-03-02T10:57:36;12.10;40.10
1337;DHT22;662;48.814;9.318;2023-03-02T11:00:20;12.00;40.90
1337;DHT22;662;48.814;9.318;2023-03-02T11:08:25;11.50;42.00
1337;DHT22;662;48.814;9.318;2023-03-02T11:10:59;11.40;42.40
1337;DHT22;662;48.814;9.318;2023-03-02T11:15:55;11.30;43.10
1337;DHT22;662;48.814;9.318;2023-03-02T11:18:32;11.20;43.30
1337;DHT22;662;48.814;9.318;2023-03-02T11:21:21;11.30;43.70
1337;DHT22;662;48.814;9.318;2023-03-02T11:23:59;11.30;43.80
1337;DHT22;662;48.814;9.318;2023-03-02T11:29:36;11.60;44.40
1337;DHT22;662;48.814;9.318;2023-03-02T11:32:12;12.30;44.30
1337;DHT22;662;48.814;9.318;2023-03-02T11:37:23;13.90;43.20
1337;DHT22;662;48.814;9.318;2023-03-02T11:42:56;15.30;39.70
1337;DHT22;662;48.814;9.318;2023-03-02T11:45:27;16.00;38.70
1337;DHT22;662;48.814;9.318;2023-03-02T11:50:58;16.80;36.70
1337;DHT22;662;48.814;9.318;2023-03-02T11:53:30;17.40;36.70
1337;DHT22;662;48.814;9.318;2023-03-02T11:55:57;17.90;36.20
1337;DHT22;662;48.814;9.318;2023-03-02T11:58:25;18.40;35.50
1337;DHT22;662;48.814;9.318;2023-03-02T12:00:53;18.80;34.70
1337;DHT22;662;48.814;9.318;2023-03-02T12:11:02;19.70;32.90
1337;DHT22;662;48.814;9.318;2023-03-02T12:13:36;19.90;32.70
1337;DHT22;662;48.814;9.318;2023-03-02T12:16:48;20.10;32.50
1337;DHT22;662;48.814;9.318;2023-03-02T12:18:51;20.40;32.50
1337;DHT22;662;48.814;9.318;2023-03-02T12:21:20;20.60;32.00
1337;DHT22;662;48.814;9.318;2023-03-02T12:31:23;21.10;30.80
1337;DHT22;662;48.814;9.318;2023-03-02T12:33:51;21.30;30.70
1337;DHT22;662;48.814;9.318;2023-03-02T12:36:33;21.50;30.70
1337;DHT22;662;48.814;9.318;2023-03-02T12:39:35;21.80;30.40
1337;DHT22;662;48.814;9.318;2023-03-02T12:47:51;22.00;29.90
1337;DHT22;662;48.814;9.318;2023-03-02T12:50:23;22.00;29.60
1337;DHT22;662;48.814;9.318;2023-03-02T12:53:01;21.90;29.40
1337;DHT22;662;48.814;9.318;2023-03-02T12:55:27;21.90;29.70
1337;DHT22;662;48.814;9.318;2023-03-02T12:57:56;21.70;29.40
1337;DHT22;662;48.814;9.318;2023-03-02T13:00:28;21.70;29.70
1337;DHT22;662;48.814;9.318;2023-03-02T13:02:57;21.60;29.40
1337;DHT22;662;48.814;9.318;2023-03-02T13:05:29;21.30;29.40
1337;DHT22;662;48.814;9.318;2023-03-02T13:07:59;21.40;30.00
1337;DHT22;662;48.814;9.318;2023-03-02T13:13:02;21.60;29.80
1337;DHT22;662;48.814;9.318;2023-03-02T13:15:28;21.50;29.60
1337;DHT22;662;48.814;9.318;2023-03-02T13:17:57;21.60;29.90
1337;DHT22;662;48.814;9.318;2023-03-02T13:20:26;21.80;29.80
1337;DHT22;662;48.814;9.318;2023-03-02T13:22:52;21.90;29.50
1337;DHT22;662;48.814;9.318;2023-03-02T13:25:27;22.00;29.70
1337;DHT22;662;48.814;9.318;2023-03-02T13:27:59;22.20;29.50
1337;DHT22;662;48.814;9.318;2023-03-02T13:30:29;22.30;29.30
1337;DHT22;662;48.814;9.318;2023-03-02T13:33:01;22.40;29.10
1337;DHT22;662;48.814;9.318;2023-03-02T13:35:31;22.40;28.90
1337;DHT22;662;48.814;9.318;2023-03-02T13:38:04;22.50;29.20
1337;DHT22;662;48.814;9.318;2023-03-02T13:40:44;22.50;29.20
1337;DHT22;662;48.814;9.318;2023-03-02T13:45:53;22.80;29.20
1337;DHT22;662;48.814;9.318;2023-03-02T13:48:19;23.00;29.00
1337;DHT22;662;48.814;9.318;2023-03-02T13:50:55;23.20;28.90
1337;DHT22;662;48.814;9.318;2023-03-02T13:53:21;23.30;28.70
1337;DHT22;662;48.814;9.318;2023-03-02T13:55:49;23.30;28.40
1337;DHT22;662;48.814;9.318;2023-03-02T13:58:16;23.20;28.60
1337;DHT22;662;48.814;9.318;2023-03-02T14:00:43;23.30;28.60
1337;DHT22;662;48.814;9.318;2023-03-02T14:05:50;23.40;28.50
1337;DHT22;662;48.814;9.318;2023-03-02T14:08:16;23.30;28.30
1337;DHT22;662;48.814;9.318;2023-03-02T14:10:42;23.30;28.50
1337;DHT22;662;48.814;9.318;2023-03-02T14:13:20;23.30;28.70
1337;DHT22;662;48.814;9.318;2023-03-02T14:15:49;23.20;28.80
1337;DHT22;662;48.814;9.318;2023-03-02T14:20:57;22.80;28.10
1337;DHT22;662;48.814;9.318;2023-03-02T14:23:26;22.60;28.50
1337;DHT22;662;48.814;9.318;2023-03-02T14:25:53;22.50;28.70
1337;DHT22;662;48.814;9.318;2023-03-02T14:28:29;22.30;28.60
1337;DHT22;662;48.814;9.318;2023-03-02T14:30:56;22.30;28.90
1337;DHT22;662;48.814;9.318;2023-03-02T14:33:23;22.40;29.20
1337;DHT22;662;48.814;9.318;2023-03-02T14:35:51;22.50;29.20
1337;DHT22;662;48.814;9.318;2023-03-02T14:38:18;22.60;29.20
1337;DHT22;662;48.814;9.318;2023-03-02T14:40:44;22.40;28.70
1337;DHT22;662;48.814;9.318;2023-03-02T14:43:10;22.00;28.90
1337;DHT22;662;48.814;9.318;2023-03-02T14:45:36;21.80;29.20
1337;DHT22;662;48.814;9.318;2023-03-02T14:48:01;21.60;29.50
1337;DHT22;662;48.814;9.318;2023-03-02T14:50:27;21.40;29.80
1337;DHT22;662;48.814;9.318;2023-03-02T14:52:54;21.20;30.00
1337;DHT22;662;48.814;9.318;2023-03-02T14:55:31;21.00;30.30
1337;DHT22;662;48.814;9.318;2023-03-02T14:58:03;20.70;30.50
1337;DHT22;662;48.814;9.318;2023-03-02T15:00:30;20.50;30.90
1337;DHT22;662;48.814;9.318;2023-03-02T15:02:57;20.10;31.10
1337;DHT22;662;48.814;9.318;2023-03-02T15:05:23;19.70;31.60
1337;DHT22;662;48.814;9.318;2023-03-02T15:07:49;19.30;31.90
1337;DHT22;662;48.814;9.318;2023-03-02T15:10:20;18.90;32.30
1337;DHT22;662;48.814;9.318;2023-03-02T15:12:45;18.60;32.80
1337;DHT22;662;48.814;9.318;2023-03-02T15:15:12;18.30;33.20
1337;DHT22;662;48.814;9.318;2023-03-02T15:17:38;18.00;33.60
1337;DHT22;662;48.814;9.318;2023-03-02T15:20:04;17.70;34.00
1337;DHT22;662;48.814;9.318;2023-03-02T15:22:31;17.30;34.40
1337;DHT22;662;48.814;9.318;2023-03-02T15:24:56;17.10;35.00
1337;DHT22;662;48.814;9.318;2023-03-02T15:27:22;16.80;35.30
1337;DHT22;662;48.814;9.318;2023-03-02T15:29:48;16.50;35.70
1337;DHT22;662;48.814;9.318;2023-03-02T15:32:14;16.30;36.30
1337;DHT22;662;48.814;9.318;2023-03-02T15:34:40;16.10;36.60
1337;DHT22;662;48.814;9.318;2023-03-02T15:37:06;15.90;36.90
1337;DHT22;662;48.814;9.318;2023-03-02T15:39:31;15.60;37.20
1337;DHT22;662;48.814;9.318;2023-03-02T15:41:58;15.40;37.70
1337;DHT22;662;48.814;9.318;2023-03-02T15:44:24;15.20;38.10
1337;DHT22;662;48.814;9.318;2023-03-02T15:46:55;15.00;38.40
1337;DHT22;662;48.814;9.318;2023-03-02T15:49:21;14.80;38.70
1337;DHT22;662;48.814;9.318;2023-03-02T15:51:50;14.60;39.10
1337;DHT22;662;48.814;9.318;2023-03-02T15:54:16;14.40;39.50
1337;DHT22;662;48.814;9.318;2023-03-02T15:56:42;14.20;39.80
1337;DHT22;662;48.814;9.318;2023-03-02T15:59:09;14.10;40.10
1337;DHT22;662;48.814;9.318;2023-03-02T16:01:35;14.00;40.40
1337;DHT22;662;48.814;9.318;2023-03-02T16:04:01;13.90;40.80
1337;DHT22;662;48.814;9.318;2023-03-02T16:06:26;13.80;41.00
1337;DHT22;662;48.814;9.318;2023-03-02T16:08:52;13.60;41.20
1337;DHT22;662;48.814;9.318;2023-03-02T16:11:18;13.50;41.50
1337;DHT22;662;48.814;9.318;2023-03-02T16:13:48;13.40;41.70
1337;DHT22;662;48.814;9.318;2023-03-02T16:16:17;13.30;41.90
1337;DHT22;662;48.814;9.318;2023-03-02T16:18:42;13.20;42.20
1337;DHT22;662;48.814;9.318;2023-03-02T16:21:12;13.10;42.40
1337;DHT22;662;48.814;9.318;2023-03-02T16:23:38;13.00;42.50
1337;DHT22;662;48.814;9.318;2023-03-02T16:26:08;12.90;42.70
1337;DHT22;662;48.814;9.318;2023-03-02T16:28:34;12.80;42.90
1337;DHT22;662;48.814;9.318;2023-03-02T16:31:04;12.80;43.20
1337;DHT22;662;48.814;9.318;2023-03-02T16:33:31;12.70;43.40
1337;DHT22;662;48.814;9.318;2023-03-02T16:35:58;12.60;43.60
1337;DHT22;662;48.814;9.318;2023-03-02T16:38:24;12.50;43.70
1337;DHT22;662;48.814;9.318;2023-03-02T16:40:50;12.50;44.00
1337;DHT22;662;48.814;9.318;2023-03-02T16:43:18;12.40;44.20
1337;DHT22;662;48.814;9.318;2023-03-02T16:45:44;12.40;44.40
1337;DHT22;662;48.814;9.318;2023-03-02T16:48:10;12.30;44.60
1337;DHT22;662;48.814;9.318;2023-03-02T16:50:36;12.20;44.80
1337;DHT22;662;48.814;9.318;2023-03-02T16:53:01;12.10;44.80
1337;DHT22;662;48.814;9.318;2023-03-02T16:55:27;12.10;45.10
1337;DHT22;662;48.814;9.318;2023-03-02T16:57:53;12.00;45.20
1337;DHT22;662;48.814;9.318;2023-03-02T17:00:19;11.90;45.30
1337;DHT22;662;48.814;9.318;2023-03-02T17:02:44;11.80;45.40
1337;DHT22;662;48.814;9.318;2023-03-02T17:05:12;11.80;45.60
1337;DHT22;662;48.814;9.318;2023-03-02T17:07:38;11.80;45.80
1337;DHT22;662;48.814;9.318;2023-03-02T17:10:04;11.70;45.90
1337;DHT22;662;48.814;9.318;2023-03-02T17:12:31;11.60;45.90
1337;DHT22;662;48.814;9.318;2023-03-02T17:14:56;11.60;46.10
1337;DHT22;662;48.814;9.318;2023-03-02T17:17:22;11.60;46.30
1337;DHT22;662;48.814;9.318;2023-03-02T17:19:48;11.50;46.40
1337;DHT22;662;48.814;9.318;2023-03-02T17:22:14;11.50;46.60
1337;DHT22;662;48.814;9.318;2023-03-02T17:24:39;11.40;46.60
1337;DHT22;662;48.814;9.318;2023-03-02T17:27:06;11.40;46.70
1337;DHT22;662;48.814;9.318;2023-03-02T17:29:31;11.40;46.80
1337;DHT22;662;48.814;9.318;2023-03-02T17:31:57;11.30;46.80
1337;DHT22;662;48.814;9.318;2023-03-02T17:34:23;11.30;46.80
1337;DHT22;662;48.814;9.318;2023-03-02T17:36:52;11.30;47.00
1337;DHT22;662;48.814;9.318;2023-03-02T17:39:18;11.20;47.00
1337;DHT22;662;48.814;9.318;2023-03-02T17:41:44;11.20;47.10
1337;DHT22;662;48.814;9.318;2023-03-02T17:44:09;11.20;47.10
1337;DHT22;662;48.814;9.318;2023-03-02T17:46:35;11.10;47.10
1337;DHT22;662;48.814;9.318;2023-03-02T17:49:01;11.10;47.10
1337;DHT22;662;48.814;9.318;2023-03-02T17:51:28;11.10;47.20
1337;DHT22;662;48.814;9.318;2023-03-02T17:53:55;11.10;47.30
1337;DHT22;662;48.814;9.318;2023-03-02T17:56:24;11.00;47.30